createdAt,value
2019-03-03T00:01:28.325Z,9.80
2019-03-03T00:03:55.609Z,9.70
2019-03-03T00:06:23.013Z,9.70
2019-03-03T00:08:50.370Z,9.70
2019-03-03T00:11:17.734Z,9.60
2019-03-03T00:13:45.087Z,9.60
2019-03-03T00:16:12.476Z,9.50
2019-03-03T00:18:39.866Z,9.50
2019-03-03T00:21:07.243Z,9.40
2019-03-03T00:23:34.695Z,9.40
2019-03-03T00:26:02.047Z,9.40
2019-03-03T00:28:29.396Z,9.30
2019-03-03T00:30:56.802Z,9.30
2019-03-03T00:33:24.118Z,9.20
2019-03-03T00:35:51.598Z,9.20
2019-03-03T00:38:37.039Z,9.20
2019-03-03T00:41:21.600Z,9.10
2019-03-03T00:44:06.991Z,9.10
2019-03-03T00:46:53.816Z,9.10
2019-03-03T00:49:46.903Z,9.10
2019-03-03T00:52:31.007Z,9.10
2019-03-03T00:55:26.573Z,9.10
2019-03-03T00:58:06.111Z,9.10
2019-03-03T01:00:41.306Z,9.10
2019-03-03T01:03:19.985Z,8.90
2019-03-03T01:06:15.637Z,9.10
2019-03-03T01:09:17.456Z,9.00
2019-03-03T01:12:02.629Z,9.10
2019-03-03T01:14:49.575Z,9.00
2019-03-03T01:17:48.089Z,9.10
2019-03-03T01:20:23.710Z,9.10
2019-03-03T01:23:03.186Z,9.10
2019-03-03T01:25:30.658Z,9.10
2019-03-03T01:27:58.014Z,9.00
2019-03-03T01:30:25.330Z,9.10
2019-03-03T01:32:52.734Z,9.10
2019-03-03T01:35:20.105Z,9.10
2019-03-03T01:37:47.453Z,9.10
2019-03-03T01:40:14.955Z,9.10
2019-03-03T01:42:42.398Z,9.10
2019-03-03T01:45:10.469Z,9.10
2019-03-03T01:47:37.841Z,9.10
2019-03-03T01:50:06.149Z,9.10
2019-03-03T01:52:33.572Z,9.10
2019-03-03T01:55:00.953Z,9.10
2019-03-03T01:57:28.521Z,9.10
2019-03-03T01:59:55.880Z,9.10
2019-03-03T02:02:23.331Z,9.10
2019-03-03T02:04:50.690Z,9.10
2019-03-03T02:07:18.027Z,9.00
2019-03-03T02:09:45.670Z,9.10
2019-03-03T02:12:13.033Z,9.10
2019-03-03T02:14:40.497Z,9.10
2019-03-03T02:17:10.255Z,9.10
2019-03-03T02:19:37.611Z,9.10
2019-03-03T02:22:05.282Z,9.10
2019-03-03T02:24:32.599Z,9.20
2019-03-03T02:26:59.957Z,9.20
2019-03-03T02:29:27.273Z,9.20
2019-03-03T02:31:54.655Z,9.10
2019-03-03T02:34:22.081Z,9.20
2019-03-03T02:36:50.015Z,9.30
2019-03-03T02:39:17.816Z,9.30
2019-03-03T02:41:45.195Z,9.30
2019-03-03T02:44:12.545Z,9.30
2019-03-03T02:46:39.927Z,9.30
2019-03-03T02:49:07.290Z,9.30
2019-03-03T02:51:34.670Z,9.40
2019-03-03T02:54:02.082Z,9.40
2019-03-03T02:56:29.490Z,9.40
2019-03-03T02:58:56.735Z,9.40
2019-03-03T03:01:34.855Z,9.50
2019-03-03T03:04:02.199Z,9.50
2019-03-03T03:06:40.634Z,9.50
2019-03-03T03:09:22.616Z,9.50
2019-03-03T03:12:15.272Z,9.50
2019-03-03T03:15:11.009Z,9.50
2019-03-03T03:17:56.059Z,9.50
2019-03-03T03:20:45.445Z,9.50
2019-03-03T03:23:34.867Z,9.50
2019-03-03T03:26:21.691Z,9.50
2019-03-03T03:29:07.039Z,9.50
2019-03-03T03:31:56.395Z,9.50
2019-03-03T03:34:28.203Z,9.50
2019-03-03T03:37:13.711Z,9.60
2019-03-03T03:40:03.432Z,9.60
2019-03-03T03:42:50.447Z,9.60
2019-03-03T03:45:36.050Z,9.60
2019-03-03T03:48:18.239Z,9.60
2019-03-03T03:51:08.946Z,9.60
2019-03-03T03:53:53.315Z,9.60
2019-03-03T03:56:45.793Z,9.60
2019-03-03T03:59:19.742Z,9.60
2019-03-03T04:02:12.402Z,9.60
2019-03-03T04:04:57.483Z,9.60
2019-03-03T04:07:50.763Z,9.60
2019-03-03T04:10:37.714Z,9.60
2019-03-03T04:13:20.911Z,9.60
2019-03-03T04:16:10.377Z,9.60
2019-03-03T04:18:45.487Z,9.60
2019-03-03T04:21:28.161Z,9.60
2019-03-03T04:24:15.025Z,9.60
2019-03-03T04:27:11.108Z,9.60
2019-03-03T04:29:51.222Z,9.60
2019-03-03T04:32:33.199Z,9.60
2019-03-03T04:35:25.918Z,9.60
2019-03-03T04:38:11.360Z,9.60
2019-03-03T04:40:52.940Z,9.60
2019-03-03T04:43:43.008Z,9.60
2019-03-03T04:46:27.493Z,9.60
2019-03-03T04:49:25.913Z,9.60
2019-03-03T04:52:05.511Z,9.60
2019-03-03T04:54:55.204Z,9.60
2019-03-03T04:57:35.298Z,9.70
2019-03-03T05:00:22.712Z,9.70
2019-03-03T05:03:18.784Z,9.70
2019-03-03T05:05:55.826Z,9.80
2019-03-03T05:08:26.784Z,9.80
2019-03-03T05:11:12.117Z,9.80
2019-03-03T05:13:49.764Z,9.80
2019-03-03T05:16:42.080Z,9.80
2019-03-03T05:19:14.766Z,9.90
2019-03-03T05:21:42.163Z,9.80
2019-03-03T05:24:09.589Z,9.90
2019-03-03T05:26:36.968Z,9.80
2019-03-03T05:29:04.380Z,9.80
2019-03-03T05:31:31.738Z,9.90
2019-03-03T05:34:00.052Z,9.90
2019-03-03T05:36:27.409Z,9.90
2019-03-03T05:38:54.796Z,9.90
2019-03-03T05:41:22.142Z,9.90
2019-03-03T05:43:49.512Z,10.00
2019-03-03T05:46:16.900Z,10.00
2019-03-03T05:48:44.300Z,10.00
2019-03-03T05:51:11.650Z,10.00
2019-03-03T05:53:39.050Z,10.00
2019-03-03T05:56:06.422Z,10.00
2019-03-03T05:58:33.784Z,10.00
2019-03-03T06:01:01.154Z,10.00
2019-03-03T06:03:28.525Z,10.00
2019-03-03T06:05:55.984Z,10.00
2019-03-03T06:08:23.274Z,10.00
2019-03-03T06:10:50.868Z,10.00
2019-03-03T06:13:18.220Z,10.10
2019-03-03T06:15:45.599Z,10.10
2019-03-03T06:18:12.880Z,10.10
2019-03-03T06:20:41.096Z,10.10
2019-03-03T06:23:08.467Z,10.10
2019-03-03T06:25:35.810Z,10.10
2019-03-03T06:28:03.188Z,10.10
2019-03-03T06:30:30.548Z,10.10
2019-03-03T06:32:57.929Z,10.10
2019-03-03T06:35:25.278Z,10.10
2019-03-03T06:37:52.712Z,10.10
2019-03-03T06:40:20.114Z,10.20
2019-03-03T06:42:47.453Z,10.10
2019-03-03T06:45:14.789Z,10.10
2019-03-03T06:47:42.196Z,10.20
2019-03-03T06:50:10.229Z,10.20
2019-03-03T06:52:37.728Z,10.20
2019-03-03T06:55:05.720Z,10.20
2019-03-03T06:57:33.067Z,10.20
2019-03-03T07:00:00.426Z,10.30
2019-03-03T07:02:27.771Z,10.30
2019-03-03T07:04:55.128Z,10.30
2019-03-03T07:07:22.483Z,10.30
2019-03-03T07:09:49.859Z,10.40
2019-03-03T07:12:17.173Z,10.30
2019-03-03T07:14:44.533Z,10.40
2019-03-03T07:17:11.857Z,10.40
2019-03-03T07:19:39.201Z,10.40
2019-03-03T07:22:06.561Z,10.40
2019-03-03T07:24:33.873Z,10.40
2019-03-03T07:27:01.249Z,10.40
2019-03-03T07:29:28.719Z,10.50
2019-03-03T07:31:56.219Z,10.50
2019-03-03T07:34:23.655Z,10.50
2019-03-03T07:36:51.057Z,10.60
2019-03-03T07:39:20.625Z,10.60
2019-03-03T07:41:47.961Z,10.60
2019-03-03T07:44:15.299Z,10.60
2019-03-03T07:46:42.731Z,10.70
2019-03-03T07:49:10.077Z,10.70
2019-03-03T07:51:37.393Z,10.70
2019-03-03T07:54:04.741Z,10.70
2019-03-03T07:56:32.140Z,10.80
2019-03-03T07:58:59.472Z,10.80
2019-03-03T08:01:26.897Z,10.80
2019-03-03T08:03:54.246Z,10.80
2019-03-03T08:06:21.598Z,10.90
2019-03-03T08:08:48.946Z,10.90
2019-03-03T08:11:16.312Z,10.90
2019-03-03T08:13:43.652Z,10.90
2019-03-03T08:16:11.034Z,10.90
2019-03-03T08:18:38.480Z,11.00
2019-03-03T08:21:05.878Z,11.00
2019-03-03T08:23:33.226Z,11.00
2019-03-03T08:26:00.542Z,11.00
2019-03-03T08:28:27.921Z,11.00
2019-03-03T08:30:55.256Z,11.00
2019-03-03T08:33:22.585Z,11.10
2019-03-03T08:35:49.943Z,11.10
2019-03-03T08:38:17.339Z,11.10
2019-03-03T08:40:44.756Z,11.10
2019-03-03T08:43:34.246Z,11.20
2019-03-03T08:46:09.449Z,11.20
2019-03-03T08:48:48.228Z,11.20
2019-03-03T08:51:43.976Z,11.20
2019-03-03T08:54:26.728Z,11.20
2019-03-03T08:57:02.032Z,11.20
2019-03-03T09:00:04.037Z,11.20
2019-03-03T09:02:36.290Z,11.20
2019-03-03T09:05:22.148Z,11.30
2019-03-03T09:08:12.479Z,11.30
2019-03-03T09:10:56.008Z,11.30
2019-03-03T09:13:42.902Z,11.30
2019-03-03T09:16:28.421Z,11.30
2019-03-03T09:19:11.896Z,11.30
2019-03-03T09:22:01.263Z,11.40
2019-03-03T09:24:53.654Z,11.40
2019-03-03T09:27:57.153Z,11.40
2019-03-03T09:30:37.228Z,11.40
2019-03-03T09:33:18.456Z,11.50
2019-03-03T09:35:53.084Z,11.50
2019-03-03T09:38:27.819Z,11.50
2019-03-03T09:41:23.584Z,11.60
2019-03-03T09:44:00.312Z,11.60
2019-03-03T09:46:49.862Z,11.60
2019-03-03T09:49:25.648Z,11.60
2019-03-03T09:52:31.470Z,11.70
2019-03-03T09:55:16.690Z,11.70
2019-03-03T09:58:02.036Z,11.70
2019-03-03T10:00:45.655Z,11.60
2019-03-03T10:03:32.700Z,11.60
2019-03-03T10:06:13.691Z,11.50
2019-03-03T10:09:04.783Z,11.40
2019-03-03T10:11:51.718Z,11.40
2019-03-03T10:14:47.469Z,11.30
2019-03-03T10:17:27.573Z,11.30
2019-03-03T10:20:05.197Z,11.20
2019-03-03T10:22:54.849Z,11.10
2019-03-03T10:25:40.159Z,11.10
2019-03-03T10:28:36.601Z,11.10
2019-03-03T10:31:22.170Z,11.10
2019-03-03T10:34:14.928Z,11.00
2019-03-03T10:37:05.206Z,11.00
2019-03-03T10:39:50.757Z,10.90
2019-03-03T10:42:31.692Z,11.00
2019-03-03T10:45:18.661Z,11.00
2019-03-03T10:48:04.118Z,11.00
2019-03-03T10:50:49.266Z,11.10
2019-03-03T10:53:39.173Z,11.10
2019-03-03T10:56:24.409Z,11.20
2019-03-03T10:58:59.524Z,11.20
2019-03-03T11:01:36.001Z,11.30
2019-03-03T11:04:17.784Z,11.30
2019-03-03T11:07:01.598Z,11.40
2019-03-03T11:10:06.433Z,11.40
2019-03-03T11:12:38.636Z,11.40
2019-03-03T11:15:31.796Z,11.40
2019-03-03T11:18:17.106Z,11.30
2019-03-03T11:20:58.329Z,11.20
2019-03-03T11:23:37.716Z,11.10
2019-03-03T11:26:30.384Z,11.10
2019-03-03T11:29:15.219Z,11.10
2019-03-03T11:32:02.494Z,11.00
2019-03-03T11:34:50.472Z,11.10
2019-03-03T11:37:46.487Z,11.00
2019-03-03T11:40:36.242Z,11.10
2019-03-03T11:43:11.409Z,11.20
2019-03-03T11:46:01.302Z,11.20
2019-03-03T11:48:46.562Z,11.20
2019-03-03T11:51:19.692Z,11.30
2019-03-03T11:54:09.648Z,11.30
2019-03-03T11:57:05.786Z,11.40
2019-03-03T11:59:49.296Z,11.50
2019-03-03T12:02:32.730Z,11.60
2019-03-03T12:05:15.906Z,11.70
2019-03-03T12:08:02.825Z,11.80
2019-03-03T12:10:58.323Z,11.80
2019-03-03T12:13:54.033Z,11.90
2019-03-03T12:16:39.766Z,12.00
2019-03-03T12:19:26.273Z,12.00
2019-03-03T12:22:11.580Z,12.20
2019-03-03T12:24:58.607Z,12.50
2019-03-03T12:27:53.404Z,12.80
2019-03-03T12:30:46.085Z,13.00
2019-03-03T12:33:35.998Z,13.20
2019-03-03T12:36:15.430Z,13.30
2019-03-03T12:38:53.791Z,13.40
2019-03-03T12:41:36.922Z,13.40
2019-03-03T12:44:16.204Z,13.20
2019-03-03T12:46:51.084Z,13.20
2019-03-03T12:49:46.844Z,13.10
2019-03-03T12:52:36.468Z,13.00
2019-03-03T12:55:28.098Z,12.90
2019-03-03T12:58:11.767Z,12.90
2019-03-03T13:01:01.179Z,12.90
2019-03-03T13:03:56.553Z,12.90
2019-03-03T13:06:52.624Z,12.80
2019-03-03T13:09:39.596Z,12.80
2019-03-03T13:12:24.952Z,12.70
2019-03-03T13:15:14.870Z,12.70
2019-03-03T13:18:04.318Z,12.70
2019-03-03T13:20:49.854Z,12.80
2019-03-03T13:23:35.153Z,12.70
2019-03-03T13:26:22.032Z,12.80
2019-03-03T13:29:08.890Z,12.80
2019-03-03T13:31:54.089Z,12.80
2019-03-03T13:34:39.424Z,12.80
2019-03-03T13:37:41.260Z,12.80
2019-03-03T13:40:30.929Z,12.80
2019-03-03T13:42:58.422Z,12.90
2019-03-03T13:45:28.329Z,12.80
2019-03-03T13:47:55.692Z,12.80
2019-03-03T13:50:23.015Z,12.80
2019-03-03T13:52:50.417Z,12.80
2019-03-03T13:55:17.821Z,12.80
2019-03-03T13:57:45.369Z,12.80
2019-03-03T14:00:17.701Z,12.80
2019-03-03T14:02:45.112Z,12.80
2019-03-03T14:05:13.896Z,12.70
2019-03-03T14:07:41.342Z,12.70
2019-03-03T14:10:08.872Z,12.70
2019-03-03T14:12:38.350Z,12.60
2019-03-03T14:15:07.922Z,12.60
2019-03-03T14:17:35.270Z,12.60
2019-03-03T14:20:04.546Z,12.60
2019-03-03T14:22:31.798Z,12.60
2019-03-03T14:24:59.204Z,12.60
2019-03-03T14:27:26.534Z,12.60
2019-03-03T14:29:53.896Z,12.60
2019-03-03T14:32:21.235Z,12.60
2019-03-03T14:34:48.620Z,12.60
2019-03-03T14:37:15.949Z,12.70
2019-03-03T14:39:43.322Z,12.60
2019-03-03T14:42:10.824Z,12.60
2019-03-03T14:44:38.306Z,12.60
2019-03-03T14:47:05.746Z,12.60
2019-03-03T14:49:33.106Z,12.60
2019-03-03T14:52:00.454Z,12.70
2019-03-03T14:54:27.802Z,12.60
2019-03-03T14:56:55.163Z,12.60
2019-03-03T14:59:22.749Z,12.60
2019-03-03T15:01:50.112Z,12.60
2019-03-03T15:04:17.432Z,12.60
2019-03-03T15:06:44.799Z,12.50
2019-03-03T15:09:19.723Z,12.50
2019-03-03T15:11:47.241Z,12.60
2019-03-03T15:14:14.596Z,12.50
2019-03-03T15:16:41.946Z,12.50
2019-03-03T15:19:09.277Z,12.50
2019-03-03T15:21:36.726Z,12.50
2019-03-03T15:24:04.110Z,12.50
2019-03-03T15:26:31.484Z,12.50
2019-03-03T15:28:58.858Z,12.40
2019-03-03T15:31:26.204Z,12.40
2019-03-03T15:33:53.578Z,12.40
2019-03-03T15:36:20.920Z,12.50
2019-03-03T15:38:48.268Z,12.50
2019-03-03T15:41:15.625Z,12.50
2019-03-03T15:43:42.975Z,12.50
2019-03-03T15:46:10.320Z,12.50
2019-03-03T15:48:37.673Z,12.60
2019-03-03T15:51:05.032Z,12.50
2019-03-03T15:53:32.298Z,12.50
2019-03-03T15:55:59.626Z,12.50
2019-03-03T15:58:26.999Z,12.50
2019-03-03T16:00:54.356Z,12.50
2019-03-03T16:03:21.743Z,12.50
2019-03-03T16:05:49.156Z,12.40
2019-03-03T16:08:16.498Z,12.40
2019-03-03T16:10:43.854Z,12.40
2019-03-03T16:13:11.186Z,12.40
2019-03-03T16:15:38.541Z,12.40
2019-03-03T16:18:06.085Z,12.30
2019-03-03T16:20:33.469Z,12.30
2019-03-03T16:23:00.808Z,12.30
2019-03-03T16:25:28.406Z,12.30
2019-03-03T16:27:55.718Z,12.30
2019-03-03T16:30:23.045Z,12.30
2019-03-03T16:32:50.490Z,12.30
2019-03-03T16:35:17.834Z,12.30
2019-03-03T16:37:45.210Z,12.30
2019-03-03T16:40:17.028Z,12.30
2019-03-03T16:42:44.412Z,12.30
2019-03-03T16:45:12.184Z,12.30
2019-03-03T16:47:39.434Z,12.30
2019-03-03T16:50:08.582Z,12.30
2019-03-03T16:52:35.972Z,12.30
2019-03-03T16:55:03.448Z,12.30
2019-03-03T16:57:30.824Z,12.30
2019-03-03T16:59:58.190Z,12.30
2019-03-03T17:02:25.553Z,12.30
2019-03-03T17:04:52.806Z,12.30
2019-03-03T17:07:20.191Z,12.30
2019-03-03T17:09:47.582Z,12.30
2019-03-03T17:12:14.948Z,12.30
2019-03-03T17:14:42.264Z,12.30
2019-03-03T17:17:09.637Z,12.40
2019-03-03T17:19:36.994Z,12.30
2019-03-03T17:22:04.348Z,12.30
2019-03-03T17:24:31.746Z,12.40
2019-03-03T17:26:59.166Z,12.40
2019-03-03T17:29:26.467Z,12.30
2019-03-03T17:31:53.802Z,12.40
2019-03-03T17:34:21.300Z,12.40
2019-03-03T17:36:48.644Z,12.40
2019-03-03T17:39:16.141Z,12.40
2019-03-03T17:41:43.545Z,12.40
2019-03-03T17:44:10.985Z,12.40
2019-03-03T17:46:38.365Z,12.40
2019-03-03T17:49:05.739Z,12.30
2019-03-03T17:51:33.110Z,12.30
2019-03-03T17:54:00.486Z,12.30
2019-03-03T17:56:27.828Z,12.40
2019-03-03T17:58:55.123Z,12.40
2019-03-03T18:01:22.587Z,12.30
2019-03-03T18:03:50.009Z,12.30
2019-03-03T18:06:17.407Z,12.40
2019-03-03T18:08:44.745Z,12.40
2019-03-03T18:11:12.254Z,12.30
2019-03-03T18:13:39.613Z,12.30
2019-03-03T18:16:07.061Z,12.30
2019-03-03T18:18:34.486Z,12.30
2019-03-03T18:21:01.944Z,12.30
2019-03-03T18:23:29.740Z,12.30
2019-03-03T18:25:57.198Z,12.30
2019-03-03T18:28:24.571Z,12.30
2019-03-03T18:30:51.945Z,12.30
2019-03-03T18:33:19.252Z,12.40
2019-03-03T18:35:46.659Z,12.40
2019-03-03T18:38:14.109Z,12.40
2019-03-03T18:40:41.487Z,12.40
2019-03-03T18:43:08.878Z,12.40
2019-03-03T18:45:36.248Z,12.40
2019-03-03T18:48:04.030Z,12.40
2019-03-03T18:50:31.397Z,12.40
2019-03-03T18:53:00.047Z,12.40
2019-03-03T18:55:27.701Z,12.40
2019-03-03T18:57:55.095Z,12.40
2019-03-03T19:00:23.433Z,12.30
2019-03-03T19:02:51.056Z,12.30
2019-03-03T19:05:18.470Z,12.30
2019-03-03T19:07:45.908Z,12.30
2019-03-03T19:10:14.211Z,12.30
2019-03-03T19:12:41.608Z,12.30
2019-03-03T19:15:11.069Z,12.30
2019-03-03T19:17:38.697Z,12.30
2019-03-03T19:20:07.683Z,12.30
2019-03-03T19:22:35.070Z,12.30
2019-03-03T19:25:02.447Z,12.20
2019-03-03T19:27:29.804Z,12.20
2019-03-03T19:29:57.160Z,12.20
2019-03-03T19:32:24.519Z,12.20
2019-03-03T19:34:51.875Z,12.20
2019-03-03T19:37:19.313Z,12.20
2019-03-03T19:39:46.785Z,12.20
2019-03-03T19:42:14.151Z,12.20
2019-03-03T19:44:41.515Z,12.10
2019-03-03T19:47:08.899Z,12.20
2019-03-03T19:49:36.313Z,12.20
2019-03-03T19:52:03.874Z,12.10
2019-03-03T19:54:31.236Z,12.10
2019-03-03T19:56:58.638Z,12.10
2019-03-03T19:59:25.990Z,12.10
2019-03-03T20:01:53.373Z,12.20
2019-03-03T20:04:20.777Z,12.20
2019-03-03T20:06:48.510Z,12.20
2019-03-03T20:09:17.115Z,12.30
2019-03-03T20:11:47.061Z,12.30
2019-03-03T20:14:14.681Z,12.30
2019-03-03T20:16:42.088Z,12.30
2019-03-03T20:19:09.769Z,12.30
2019-03-03T20:21:37.140Z,12.30
2019-03-03T20:24:04.535Z,12.40
2019-03-03T20:26:31.965Z,12.30
2019-03-03T20:28:59.328Z,12.30
2019-03-03T20:31:26.697Z,12.40
2019-03-03T20:33:54.163Z,12.30
2019-03-03T20:36:23.366Z,12.40
2019-03-03T20:38:50.739Z,12.40
2019-03-03T20:41:18.126Z,12.40
2019-03-03T20:43:45.502Z,12.30
2019-03-03T20:46:12.866Z,12.30
2019-03-03T20:48:40.262Z,12.40
2019-03-03T20:51:07.646Z,12.30
2019-03-03T20:53:34.997Z,12.30
2019-03-03T20:56:02.358Z,12.30
2019-03-03T20:58:29.732Z,12.30
2019-03-03T21:00:57.167Z,12.30
2019-03-03T21:03:24.540Z,12.30
2019-03-03T21:05:51.896Z,12.30
2019-03-03T21:08:19.216Z,12.30
2019-03-03T21:10:46.597Z,12.30
2019-03-03T21:13:13.961Z,12.30
2019-03-03T21:15:42.610Z,12.30
2019-03-03T21:18:09.987Z,12.30
2019-03-03T21:20:37.381Z,12.30
2019-03-03T21:23:04.720Z,12.30
2019-03-03T21:25:32.062Z,12.40
2019-03-03T21:28:00.540Z,12.30
2019-03-03T21:30:27.976Z,12.30
2019-03-03T21:32:55.249Z,12.30
2019-03-03T21:35:22.714Z,12.30
2019-03-03T21:37:50.094Z,12.20
2019-03-03T21:40:17.666Z,12.20
2019-03-03T21:42:45.057Z,12.20
2019-03-03T21:45:13.908Z,12.20
2019-03-03T21:47:41.336Z,12.20
2019-03-03T21:50:10.697Z,12.30
2019-03-03T21:52:38.060Z,12.30
2019-03-03T21:55:05.443Z,12.30
2019-03-03T21:57:32.842Z,12.30
2019-03-03T22:00:00.351Z,12.30
2019-03-03T22:02:27.898Z,12.40
2019-03-03T22:04:55.324Z,12.40
2019-03-03T22:07:22.695Z,12.40
2019-03-03T22:09:50.091Z,12.40
2019-03-03T22:12:17.445Z,12.40
2019-03-03T22:14:44.821Z,12.40
2019-03-03T22:17:12.306Z,12.40
2019-03-03T22:19:39.614Z,12.40
2019-03-03T22:22:07.010Z,12.50
2019-03-03T22:24:34.377Z,12.50
2019-03-03T22:27:01.613Z,12.50
2019-03-03T22:29:29.089Z,12.50
2019-03-03T22:31:56.451Z,12.50
2019-03-03T22:34:23.820Z,12.50
2019-03-03T22:36:51.258Z,12.50
2019-03-03T22:39:18.649Z,12.50
2019-03-03T22:41:46.013Z,12.50
2019-03-03T22:44:13.369Z,12.40
2019-03-03T22:46:40.757Z,12.40
2019-03-03T22:49:08.123Z,12.40
2019-03-03T22:51:35.477Z,12.40
2019-03-03T22:54:02.855Z,12.30
2019-03-03T22:56:30.229Z,12.40
2019-03-03T22:58:57.548Z,12.40
2019-03-03T23:01:31.633Z,12.40
2019-03-03T23:04:23.736Z,12.40
2019-03-03T23:06:56.787Z,12.40
2019-03-03T23:10:23.756Z,12.30
2019-03-03T23:13:14.545Z,12.40
2019-03-03T23:16:19.071Z,12.40
2019-03-03T23:19:18.393Z,12.40
2019-03-03T23:22:21.929Z,12.40
2019-03-03T23:25:25.623Z,12.40
2019-03-03T23:27:52.983Z,12.40
2019-03-03T23:30:20.311Z,12.40
2019-03-03T23:32:47.656Z,12.50
2019-03-03T23:35:15.007Z,12.40
2019-03-03T23:37:42.444Z,12.40
2019-03-03T23:40:09.900Z,12.40
2019-03-03T23:42:37.247Z,12.40
2019-03-03T23:45:05.556Z,12.40
2019-03-03T23:47:32.898Z,12.50
2019-03-03T23:50:00.318Z,12.50
2019-03-03T23:52:28.019Z,12.60
2019-03-03T23:54:55.391Z,12.50
2019-03-03T23:57:23.429Z,12.50
2019-03-03T23:59:51.013Z,12.50
